Time;durP1;ratioP1;P1;durP2;ratioP2;P2;SDS_P1;SDS_P2;PMS_P1;PMS_P2;Temp;Humidity;BMP_temperature;BMP_pressure;BME280_temperature;BME280_humidity;BME280_pressure;Samples;Min_cycle;Max_cycle;Signal;HPM_P1;HPM_P2
2023/02/09 00:00:15;;;;;;;26.17;12.80;;;;;;;-4.38;100.00;103240.88;5010924;28;21609;-73
2023/02/09 00:02:41;;;;;;;17.80;10.35;;;;;;;-5.11;100.00;103127.28;5003513;28;20060;-77
2023/02/09 00:05:08;;;;;;;23.23;12.10;;;;;;;-3.33;100.00;103380.06;5004345;28;20104;-76
2023/02/09 00:07:36;;;;;;;24.20;11.30;;;;;;;-3.54;100.00;103389.88;5002720;28;20068;-75
2023/02/09 00:10:02;;;;;;;20.90;9.18;;;;;;;-4.14;100.00;103263.06;5007049;28;20049;-78
2023/02/09 00:15:11;;;;;;;14.20;8.05;;;;;;;-3.47;100.00;103347.81;5005381;28;20429;-77
2023/02/09 00:17:37;;;;;;;15.98;10.32;;;;;;;-4.15;100.00;103239.81;5004392;28;20030;-75
2023/02/09 00:20:05;;;;;;;19.15;9.50;;;;;;;-3.31;100.00;103383.69;5006995;28;20121;-75
2023/02/09 00:22:30;;;;;;;17.98;8.65;;;;;;;-3.54;100.00;103355.63;5008433;28;20104;-79
2023/02/09 00:24:56;;;;;;;17.40;8.57;;;;;;;-3.32;100.00;103369.97;5005176;28;20049;-76
2023/02/09 00:27:21;;;;;;;19.70;8.15;;;;;;;-3.38;100.00;103371.88;5005646;28;20509;-76
2023/02/09 00:29:47;;;;;;;15.80;8.13;;;;;;;-4.32;100.00;103192.81;5004485;28;20029;-74
2023/02/09 00:32:12;;;;;;;17.27;7.38;;;;;;;-3.84;100.00;103259.31;5004689;28;20407;-75
2023/02/09 00:34:38;;;;;;;13.75;6.32;;;;;;;-3.25;100.00;103371.50;5004935;28;20057;-77
2023/02/09 00:37:04;;;;;;;12.13;5.35;;;;;;;-3.30;100.00;103358.19;4995116;28;20050;-76
2023/02/09 00:39:30;;;;;;;8.68;4.75;;;;;;;-3.25;100.00;103357.00;5002826;28;20046;-74
2023/02/09 00:42:09;;;;;;;15.30;5.40;;;;;;;-3.87;100.00;103259.91;4998145;28;20072;-77
2023/02/09 00:44:37;;;;;;;12.57;6.20;;;;;;;-3.87;100.00;103243.63;4997436;28;20038;-74
2023/02/09 00:47:05;;;;;;;10.73;4.97;;;;;;;-3.52;100.00;103285.75;5002638;28;20049;-75
2023/02/09 00:49:31;;;;;;;8.50;3.35;;;;;;;-3.85;100.00;103243.03;5003589;28;20054;-78
2023/02/09 00:51:56;;;;;;;9.02;5.10;;;;;;;-3.08;100.00;103366.44;4999066;28;20054;-74
2023/02/09 00:54:22;;;;;;;13.38;4.93;;;;;;;-3.89;100.00;103260.50;4995806;28;20058;-77
2023/02/09 00:56:48;;;;;;;13.77;4.55;;;;;;;-3.10;100.00;103382.44;4998800;28;20469;-74
2023/02/09 00:59:14;;;;;;;13.15;5.30;;;;;;;-3.24;100.00;103350.19;5000080;28;20535;-76
2023/02/09 01:01:40;;;;;;;10.30;5.57;;;;;;;-3.68;100.00;103280.69;5002178;28;20088;-74
2023/02/09 01:04:06;;;;;;;8.27;4.70;;;;;;;-3.73;100.00;103274.16;5003774;28;20049;-74
2023/02/09 01:06:32;;;;;;;10.00;5.18;;;;;;;-3.21;100.00;103414.69;4998964;28;20053;-74
2023/02/09 01:08:57;;;;;;;9.25;4.45;;;;;;;-3.07;100.00;103386.22;4998086;28;20037;-75
2023/02/09 01:11:26;;;;;;;12.63;6.10;;;;;;;-3.28;100.00;103363.47;4996716;28;20042;-74
2023/02/09 01:13:57;;;;;;;11.05;5.32;;;;;;;-3.17;100.00;103390.25;5001090;28;20548;-74
2023/02/09 01:16:23;;;;;;;13.93;6.78;;;;;;;-3.15;100.00;103373.34;5001469;28;20490;-74
2023/02/09 01:18:49;;;;;;;11.27;5.00;;;;;;;-4.29;100.00;103223.00;5000780;28;20505;-75
2023/02/09 01:21:19;;;;;;;13.73;5.53;;;;;;;-3.38;100.00;103369.31;5005318;28;20054;-76
2023/02/09 01:23:46;;;;;;;14.98;6.63;;;;;;;-4.22;100.00;103215.19;5004200;28;20066;-75
2023/02/09 01:26:12;;;;;;;17.55;5.18;;;;;;;-3.22;100.00;103371.81;5002892;28;20084;-76
2023/02/09 01:28:38;;;;;;;41.35;8.48;;;;;;;-4.21;100.00;103229.84;5001224;28;20509;-74
2023/02/09 01:31:05;;;;;;;25.92;5.70;;;;;;;-3.48;100.00;103348.56;5005350;28;20049;-74
2023/02/09 01:33:31;;;;;;;11.70;4.72;;;;;;;-4.21;100.00;103213.53;5007068;28;20053;-74
2023/02/09 01:35:58;;;;;;;22.60;7.72;;;;;;;-4.07;100.00;103236.44;5002777;28;20038;-73
2023/02/09 01:38:23;;;;;;;15.63;6.65;;;;;;;-3.66;100.00;103297.13;4996091;28;20474;-74
2023/02/09 01:40:49;;;;;;;10.38;6.95;;;;;;;-3.42;100.00;103339.88;4996401;28;20049;-77
2023/02/09 01:43:15;;;;;;;11.82;4.95;;;;;;;-3.72;100.00;103352.03;5008386;28;20050;-75
2023/02/09 01:45:49;;;;;;;12.13;6.25;;;;;;;-3.49;100.00;103347.69;5004752;28;20095;-73
2023/02/09 01:48:19;;;;;;;11.20;4.85;;;;;;;-3.96;100.00;103324.72;5001518;28;20054;-73
2023/02/09 01:50:48;;;;;;;13.23;5.55;;;;;;;-4.38;100.00;103219.47;5004175;28;20037;-75
2023/02/09 01:53:16;;;;;;;9.35;5.47;;;;;;;-4.26;100.00;103313.06;4999353;28;20061;-76
2023/02/09 01:56:06;;;;;;;12.90;6.55;;;;;;;-4.64;100.00;103316.59;4999637;28;20153;-75
2023/02/09 01:58:33;;;;;;;13.20;6.63;;;;;;;-5.25;100.00;103252.88;5000379;28;20058;-76
2023/02/09 02:00:59;;;;;;;16.08;6.78;;;;;;;-5.68;100.00;103185.88;5005383;28;20049;-73
2023/02/09 02:03:26;;;;;;;12.98;5.13;;;;;;;-5.10;100.00;103320.22;5005064;28;20600;-76
2023/02/09 02:05:57;;;;;;;15.38;6.45;;;;;;;-5.62;100.00;103222.34;4999972;28;20064;-73
2023/02/09 02:08:33;;;;;;;14.07;7.05;;;;;;;-5.28;100.00;103331.88;4993130;28;20057;-74
2023/02/09 02:10:58;;;;;;;10.07;5.53;;;;;;;-5.57;100.00;103326.09;4993057;28;20058;-75
2023/02/09 02:13:24;;;;;;;9.73;3.92;;;;;;;-6.24;100.00;103189.09;4996221;28;20088;-75
2023/02/09 02:16:05;;;;;;;11.40;4.85;;;;;;;-6.09;100.00;103233.31;4997396;28;20544;-75
2023/02/09 02:19:00;;;;;;;14.25;6.95;;;;;;;-6.03;100.00;103182.91;4996446;28;20474;-74
2023/02/09 02:21:41;;;;;;;14.63;6.80;;;;;;;-5.49;100.00;103224.59;4995989;28;20148;-73
2023/02/09 02:24:25;;;;;;;19.02;6.43;;;;;;;-4.62;100.00;103357.00;5002781;28;20099;-74
2023/02/09 02:26:53;;;;;;;;;;;;;;;-4.56;100.00;103369.59;5001666;28;20072;-74
2023/02/09 02:29:43;;;;;;;9.55;4.10;;;;;;;-4.73;100.00;103381.47;4998276;28;19925;-74
2023/02/09 02:32:11;;;;;;;15.70;5.20;;;;;;;-5.38;100.00;103365.75;5000219;28;20050;-74
2023/02/09 02:34:58;;;;;;;15.45;7.40;;;;;;;-5.37;100.00;103365.00;4997957;28;20053;-74
2023/02/09 02:37:31;;;;;;;7.90;5.55;;;;;;;-6.08;100.00;103197.72;4998215;28;20057;-74
2023/02/09 02:39:57;;;;;;;;;;;;;;;-4.99;100.00;103355.53;5000443;28;20579;-75
2023/02/09 02:42:50;;;;;;;25.80;6.90;;;;;;;-5.39;100.00;103256.47;4994967;28;19921;-74
2023/02/09 02:45:37;;;;;;;15.23;7.68;;;;;;;-4.88;100.00;103360.19;4996875;28;20088;-74
2023/02/09 02:48:20;;;;;;;15.13;10.43;;;;;;;-5.17;100.00;103351.88;4991542;28;20038;-74
2023/02/09 02:50:52;;;;;;;21.35;10.07;;;;;;;-4.86;100.00;103329.66;4998466;28;20033;-74
2023/02/09 02:53:23;;;;;;;16.27;6.03;;;;;;;-4.74;100.00;103346.34;5002136;28;20058;-73
2023/02/09 02:55:49;;;;;;;24.95;7.18;;;;;;;-4.82;100.00;103331.81;4999707;28;20062;-75
2023/02/09 02:58:18;;;;;;;14.60;7.38;;;;;;;-4.92;100.00;103293.13;4998684;28;20061;-74
2023/02/09 03:00:48;;;;;;;21.20;9.20;;;;;;;-4.67;100.00;103322.31;4994841;28;20050;-75
2023/02/09 03:03:25;;;;;;;32.08;11.75;;;;;;;-5.05;100.00;103323.28;4999485;28;20132;-73
2023/02/09 03:05:52;;;;;;;20.77;9.32;;;;;;;-4.92;100.00;103317.09;4998874;28;20042;-75
2023/02/09 03:08:17;;;;;;;21.13;7.82;;;;;;;-5.29;100.00;103253.28;5002547;28;20053;-76
2023/02/09 03:10:43;;;;;;;19.63;10.95;;;;;;;-6.16;100.00;103155.06;4999860;28;20600;-76
2023/02/09 03:13:41;;;;;;;20.88;12.30;;;;;;;-5.01;100.00;103305.84;4997268;28;20054;-74
2023/02/09 03:16:23;;;;;;;17.40;11.05;;;;;;;-5.33;100.00;103263.94;4998426;28;20061;-74
2023/02/09 03:19:09;;;;;;;24.38;12.98;;;;;;;-5.31;100.00;103300.84;5002942;28;20042;-74
2023/02/09 03:21:37;;;;;;;17.17;9.98;;;;;;;-5.63;100.00;103321.16;4997538;28;20145;-75
2023/02/09 03:24:04;;;;;;;19.27;11.50;;;;;;;-5.37;100.00;103302.69;4998173;28;20497;-75
2023/02/09 03:26:41;;;;;;;22.95;14.27;;;;;;;-5.53;100.00;103308.66;4994861;28;20040;-74
2023/02/09 03:29:08;;;;;;;26.15;13.70;;;;;;;-5.86;100.00;103280.22;4998639;28;20111;-75
2023/02/09 03:31:34;;;;;;;23.48;12.15;;;;;;;-5.99;100.00;103300.09;4998179;28;20052;-74
2023/02/09 03:34:00;;;;;;;23.67;12.63;;;;;;;-6.16;100.00;103255.66;5005861;28;20067;-74
2023/02/09 03:36:32;;;;;;;32.63;14.93;;;;;;;-6.08;100.00;103309.28;5004361;28;20502;-73
2023/02/09 03:38:57;;;;;;;21.00;12.93;;;;;;;-6.24;100.00;103268.28;5004770;28;20103;-73
2023/02/09 03:41:23;;;;;;;21.33;13.77;;;;;;;-5.93;100.00;103287.94;4999523;28;20421;-75
2023/02/09 03:46:32;;;;;;;20.83;10.95;;;;;;;-6.20;100.00;103298.56;5000169;28;20096;-74
2023/02/09 03:48:58;;;;;;;22.60;10.82;;;;;;;-6.29;100.00;103284.75;5000723;28;20042;-74
2023/02/09 03:51:24;;;;;;;21.95;12.10;;;;;;;-6.41;100.00;103266.38;4997687;28;20047;-74
2023/02/09 03:53:49;;;;;;;18.20;10.13;;;;;;;-6.14;100.00;103283.91;5004422;28;20049;-74
2023/02/09 03:56:15;;;;;;;26.48;12.73;;;;;;;-6.27;100.00;103291.84;5004247;28;20141;-73
2023/02/09 03:58:40;;;;;;;22.30;13.57;;;;;;;-6.69;100.00;103221.47;5005103;28;20043;-75
2023/02/09 04:01:08;;;;;;;24.15;14.40;;;;;;;-6.31;100.00;103246.25;5003763;28;20046;-75
2023/02/09 04:03:34;;;;;;;19.50;10.45;;;;;;;-6.55;100.00;103253.69;5003776;28;20041;-75
2023/02/09 04:06:00;;;;;;;22.50;14.55;;;;;;;-6.70;100.00;103215.41;5001591;28;20033;-75
2023/02/09 04:08:28;;;;;;;19.10;10.32;;;;;;;-6.79;100.00;103227.13;4998318;28;20501;-76
2023/02/09 04:10:55;;;;;;;24.98;12.63;;;;;;;-7.46;100.00;103097.81;4991919;28;20041;-74
2023/02/09 04:13:20;;;;;;;22.33;13.35;;;;;;;-6.58;100.00;103261.88;4998244;28;20050;-76
2023/02/09 04:15:46;;;;;;;25.13;14.40;;;;;;;-6.58;100.00;103264.41;5003647;28;20062;-76
2023/02/09 04:18:12;;;;;;;28.48;13.63;;;;;;;-7.50;100.00;103096.53;5002739;28;22310;-76
2023/02/09 04:20:37;;;;;;;35.60;12.27;;;;;;;-6.32;100.00;103266.50;5006865;28;20379;-75
2023/02/09 04:23:03;;;;;;;28.20;14.18;;;;;;;-6.63;100.00;103263.00;5004080;28;20049;-74
2023/02/09 04:25:28;;;;;;;24.90;12.35;;;;;;;-6.56;100.00;103259.50;4995187;28;20046;-73
2023/02/09 04:27:54;;;;;;;24.33;15.90;;;;;;;-6.63;100.00;103256.22;5001950;28;20046;-74
2023/02/09 04:30:19;;;;;;;25.17;14.70;;;;;;;-6.65;100.00;103249.13;5004381;28;20506;-75
2023/02/09 04:32:45;;;;;;;39.95;17.80;;;;;;;-6.90;100.00;103240.31;5008163;28;20046;-74
2023/02/09 04:35:10;;;;;;;37.70;17.33;;;;;;;-7.71;100.00;103112.81;5002234;28;20038;-74
2023/02/09 04:37:35;;;;;;;20.40;14.70;;;;;;;-7.57;100.00;103141.56;5004547;28;20078;-74
2023/02/09 04:40:01;;;;;;;43.13;18.95;;;;;;;-8.84;100.00;102883.16;5000484;28;20538;-74
2023/02/09 04:42:26;;;;;;;32.83;18.75;;;;;;;-7.71;100.00;103097.50;4994056;28;20054;-75
2023/02/09 04:44:52;;;;;;;39.30;19.35;;;;;;;-6.99;100.00;103240.16;5003241;28;20037;-74
2023/02/09 04:47:17;;;;;;;31.42;20.42;;;;;;;-7.79;100.00;103098.28;5007542;28;20050;-73
2023/02/09 04:49:43;;;;;;;45.38;23.92;;;;;;;-7.14;100.00;103229.09;5002671;28;20475;-76
2023/02/09 04:52:09;;;;;;;30.08;17.98;;;;;;;-7.11;100.00;103254.03;5008018;28;20050;-73
2023/02/09 04:54:34;;;;;;;35.72;19.60;;;;;;;-7.06;100.00;103245.28;5002964;28;20058;-74
2023/02/09 04:59:44;;;;;;;29.95;17.67;;;;;;;-8.79;100.00;102963.47;5003278;28;20425;-75
2023/02/09 05:02:10;;;;;;;32.20;19.75;;;;;;;-7.19;100.00;103242.91;4997984;28;20045;-77
2023/02/09 05:04:36;;;;;;;31.40;17.88;;;;;;;-7.20;100.00;103250.41;5007832;28;20132;-76
2023/02/09 05:07:01;;;;;;;36.55;20.15;;;;;;;-7.85;100.00;103101.00;4993988;28;20105;-74
2023/02/09 05:09:27;;;;;;;40.63;19.35;;;;;;;-8.09;100.00;103075.22;4997050;28;20050;-75
2023/02/09 05:11:52;;;;;;;27.55;15.57;;;;;;;-7.05;100.00;103225.06;5003357;28;20134;-75
2023/02/09 05:14:18;;;;;;;49.53;20.75;;;;;;;-7.78;100.00;103084.78;5000554;28;20057;-75
2023/02/09 05:16:43;;;;;;;42.15;23.42;;;;;;;-7.98;100.00;103091.72;5006172;28;20034;-74
2023/02/09 05:19:09;;;;;;;46.80;22.60;;;;;;;-7.23;100.00;103238.22;5003967;28;20053;-73
2023/02/09 05:21:34;;;;;;;57.65;21.52;;;;;;;-7.25;100.00;103222.72;5002473;28;20050;-74
2023/02/09 05:24:00;;;;;;;37.38;19.23;;;;;;;-7.72;100.00;103133.03;5004550;28;20545;-74
2023/02/09 05:26:25;;;;;;;36.25;19.65;;;;;;;-7.18;100.00;103254.06;5002350;28;20410;-74
2023/02/09 05:28:51;;;;;;;48.20;23.17;;;;;;;-8.14;100.00;103073.75;5003575;28;20513;-74
2023/02/09 05:31:17;;;;;;;37.58;22.25;;;;;;;-7.10;100.00;103253.28;5007534;28;20038;-77
2023/02/09 05:33:43;;;;;;;47.38;21.35;;;;;;;-8.09;100.00;103076.09;5005735;28;20057;-76
2023/02/09 05:36:11;;;;;;;39.75;19.10;;;;;;;-7.36;100.00;103214.53;4996458;28;20072;-74
2023/02/09 05:38:36;;;;;;;34.85;21.42;;;;;;;-7.94;100.00;103101.56;4991032;28;20113;-73
2023/02/09 05:41:07;;;;;;;45.75;22.98;;;;;;;-7.88;100.00;103126.13;5004920;28;20086;-73
2023/02/09 05:43:33;;;;;;;37.90;19.70;;;;;;;-8.06;100.00;103081.56;4999540;28;20053;-73
2023/02/09 05:45:58;;;;;;;40.83;20.58;;;;;;;-7.09;100.00;103250.03;5003912;28;20190;-74
2023/02/09 05:48:24;;;;;;;30.02;20.08;;;;;;;-7.14;100.00;103244.38;5000583;28;20545;-72
2023/02/09 05:50:50;;;;;;;31.80;16.17;;;;;;;-7.85;100.00;103107.75;5000515;28;20035;-75
2023/02/09 05:53:15;;;;;;;30.77;16.38;;;;;;;-6.93;100.00;103268.94;5003593;28;20564;-75
2023/02/09 05:55:42;;;;;;;34.75;18.50;;;;;;;-7.02;100.00;103273.88;4997089;28;20045;-75
2023/02/09 05:58:08;;;;;;;41.42;19.70;;;;;;;-6.89;100.00;103275.28;4997964;28;20066;-78
2023/02/09 06:00:33;;;;;;;24.58;14.63;;;;;;;-6.99;100.00;103259.66;4996704;28;20046;-75
2023/02/09 06:02:59;;;;;;;33.97;18.58;;;;;;;-7.00;100.00;103240.88;4991434;28;20049;-75
2023/02/09 06:05:25;;;;;;;23.23;13.10;;;;;;;-7.79;100.00;103122.84;4999503;28;20034;-73
2023/02/09 06:07:50;;;;;;;37.92;19.80;;;;;;;-6.84;100.00;103272.53;4994941;28;20062;-75
2023/02/09 06:10:17;;;;;;;26.33;14.98;;;;;;;-7.57;100.00;103121.16;4998541;28;20100;-76
2023/02/09 06:12:43;;;;;;;37.97;17.45;;;;;;;-6.62;100.00;103275.94;4994501;28;20069;-75
2023/02/09 06:15:09;;;;;;;31.17;16.48;;;;;;;-6.52;100.00;103261.69;4996669;28;20143;-73
2023/02/09 06:17:35;;;;;;;38.88;19.20;;;;;;;-6.67;100.00;103256.63;5000888;28;20037;-74
2023/02/09 06:20:00;;;;;;;27.25;14.45;;;;;;;-6.55;100.00;103279.22;4994131;28;20158;-73
2023/02/09 06:22:28;;;;;;;31.88;19.67;;;;;;;-6.43;100.00;103252.53;4998479;28;20057;-73
2023/02/09 06:24:53;;;;;;;41.95;20.80;;;;;;;-7.26;100.00;103126.53;4995083;28;20070;-73
2023/02/09 06:27:19;;;;;;;29.35;17.50;;;;;;;-7.25;100.00;103119.78;4997352;28;20096;-73
2023/02/09 06:29:44;;;;;;;34.30;20.58;;;;;;;-7.49;100.00;103106.03;5002029;28;20034;-75
2023/02/09 06:32:10;;;;;;;29.52;16.30;;;;;;;-6.81;100.00;103180.13;4994886;28;20097;-75
2023/02/09 06:34:35;;;;;;;36.40;17.02;;;;;;;-6.90;100.00;103123.81;5009539;28;20418;-72
2023/02/09 06:37:01;;;;;;;40.08;18.13;;;;;;;-6.35;100.00;103250.81;5002898;28;20486;-74
2023/02/09 06:39:26;;;;;;;44.42;15.55;;;;;;;-7.02;100.00;103141.19;4998227;28;20042;-73
2023/02/09 06:41:52;;;;;;;28.60;17.67;;;;;;;-6.08;100.00;103306.72;4996759;28;20053;-77
2023/02/09 06:44:18;;;;;;;19.88;12.88;;;;;;;-5.98;100.00;103301.91;4990385;28;20077;-76
2023/02/09 06:46:43;;;;;;;27.85;14.77;;;;;;;-5.84;100.00;103280.41;4992042;28;20054;-75
2023/02/09 06:49:09;;;;;;;26.27;13.43;;;;;;;-5.58;100.00;103311.47;4990642;28;20104;-75
2023/02/09 06:51:34;;;;;;;20.60;13.00;;;;;;;-5.89;100.00;103286.66;4994237;28;20065;-75
2023/02/09 06:54:00;;;;;;;31.20;13.48;;;;;;;-6.18;100.00;103233.19;4996136;28;20404;-75
2023/02/09 06:56:25;;;;;;;20.98;14.02;;;;;;;-6.12;100.00;103192.09;5006377;28;20054;-75
2023/02/09 06:58:51;;;;;;;29.48;17.38;;;;;;;-5.60;100.00;103285.69;4993106;28;20156;-73
2023/02/09 07:01:16;;;;;;;42.92;20.45;;;;;;;-5.38;100.00;103309.47;4983099;28;20715;-83
2023/02/09 07:03:43;;;;;;;24.70;12.65;;;;;;;-5.07;100.00;103329.88;4983384;28;20156;-76
2023/02/09 07:06:12;;;;;;;28.67;12.63;;;;;;;-4.95;100.00;103336.31;4983165;28;20044;-84
2023/02/09 07:08:38;;;;;;;26.58;15.32;;;;;;;-5.50;100.00;103205.81;4982894;28;20420;-78
2023/02/09 07:11:05;;;;;;;18.27;10.93;;;;;;;-5.23;100.00;103224.91;4980304;28;20075;-79
2023/02/09 07:13:32;;;;;;;36.17;12.02;;;;;;;-4.98;100.00;103320.63;4980938;28;20045;-76
2023/02/09 07:15:59;;;;;;;25.73;8.30;;;;;;;-5.71;100.00;103201.78;4979884;28;20101;-75
2023/02/09 07:18:25;;;;;;;21.15;8.35;;;;;;;-5.24;100.00;103287.97;4980073;28;20069;-80
2023/02/09 07:20:55;;;;;;;32.47;10.23;;;;;;;-4.72;100.00;103320.91;4984378;28;20042;-76
2023/02/09 07:23:20;;;;;;;20.80;9.65;;;;;;;-4.65;100.00;103319.94;4980348;28;20057;-79
2023/02/09 07:25:46;;;;;;;22.02;13.05;;;;;;;-4.80;100.00;103327.78;4985384;28;20513;-77
2023/02/09 07:28:11;;;;;;;18.27;10.45;;;;;;;-4.54;100.00;103332.22;4995096;28;20046;-74
2023/02/09 07:30:39;;;;;;;25.08;10.95;;;;;;;-5.32;100.00;103160.81;4994042;28;20284;-74
2023/02/09 07:33:05;;;;;;;20.02;10.50;;;;;;;-4.25;100.00;103363.56;4996237;28;20052;-76
2023/02/09 07:35:31;;;;;;;35.58;12.15;;;;;;;-3.98;100.00;103374.94;4997203;28;20389;-77
2023/02/09 07:37:56;;;;;;;25.77;12.90;;;;;;;-4.94;100.00;103220.34;4991724;28;20049;-72
2023/02/09 07:40:22;;;;;;;30.23;14.43;;;;;;;-4.97;100.00;103218.38;4997837;28;20503;-73
2023/02/09 07:42:49;;;;;;;22.77;15.63;;;;;;;-5.03;100.00;103247.53;4989028;28;20054;-73
2023/02/09 07:45:16;;;;;;;31.58;16.00;;;;;;;-4.53;100.00;103340.09;4993721;28;20137;-73
2023/02/09 07:47:42;;;;;;;37.92;17.77;;;;;;;-5.01;100.00;103231.59;4994114;28;20026;-79
2023/02/09 07:50:08;;;;;;;39.22;19.25;;;;;;;-5.09;100.00;103222.19;4998975;28;20046;-74
2023/02/09 07:52:33;;;;;;;35.42;17.85;;;;;;;-4.28;100.00;103376.06;5005795;28;20077;-75
2023/02/09 07:54:58;;;;;;;35.30;18.20;;;;;;;-4.95;100.00;103222.00;4993204;28;20042;-74
2023/02/09 07:57:26;;;;;;;31.83;19.98;;;;;;;-4.07;100.00;103356.94;4994338;28;20085;-74
2023/02/09 07:59:52;;;;;;;59.78;21.10;;;;;;;-3.71;100.00;103366.69;4997639;28;20041;-75
2023/02/09 08:02:27;;;;;;;31.33;14.65;;;;;;;-3.68;100.00;103362.78;4991079;28;20054;-77
2023/02/09 08:04:57;;;;;;;41.00;12.82;;;;;;;-4.16;100.00;103303.03;4999109;28;20157;-76
2023/02/09 08:07:24;;;;;;;27.02;10.40;;;;;;;-4.66;100.00;103249.84;4992776;28;20494;-74
2023/02/09 08:09:49;;;;;;;51.55;12.82;;;;;;;-4.04;100.00;103377.75;4995601;28;20052;-75
2023/02/09 08:12:15;;;;;;;29.98;12.00;;;;;;;-3.93;100.00;103372.13;4988727;28;20050;-75
2023/02/09 08:14:47;;;;;;;19.27;9.48;;;;;;;-4.52;100.00;103261.56;4995299;28;20021;-74
2023/02/09 08:17:26;;;;;;;26.95;11.15;;;;;;;-3.87;100.00;103393.28;5001398;28;20054;-75
2023/02/09 08:20:05;;;;;;;17.95;9.52;;;;;;;-4.18;100.00;103314.75;4998706;28;20132;-77
2023/02/09 08:22:37;;;;;;;23.13;9.82;;;;;;;-3.89;100.00;103369.13;5001351;28;20536;-74
2023/02/09 08:25:04;;;;;;;18.00;9.48;;;;;;;-3.82;100.00;103380.94;4997636;28;20070;-76
2023/02/09 08:27:30;;;;;;;20.48;9.98;;;;;;;-4.60;100.00;103237.69;4993164;28;20061;-75
2023/02/09 08:29:58;;;;;;;19.00;8.80;;;;;;;-3.67;100.00;103377.44;4996996;28;20042;-73
2023/02/09 08:32:24;;;;;;;24.67;10.20;;;;;;;-4.23;100.00;103272.34;4995104;28;20046;-75
2023/02/09 08:34:49;;;;;;;20.90;10.57;;;;;;;-3.65;100.00;103362.22;4996794;28;20057;-75
2023/02/09 08:37:15;;;;;;;24.98;13.65;;;;;;;-3.55;100.00;103348.69;4999858;28;20053;-74
2023/02/09 08:39:40;;;;;;;24.33;12.00;;;;;;;-4.04;100.00;103282.88;4998604;28;20334;-74
2023/02/09 08:42:05;;;;;;;17.85;9.65;;;;;;;-3.68;100.00;103333.66;5003639;28;20108;-79
2023/02/09 08:44:31;;;;;;;20.15;9.90;;;;;;;-3.28;100.00;103340.34;4995619;28;20430;-73
2023/02/09 08:46:56;;;;;;;16.40;8.57;;;;;;;-4.43;100.00;103166.81;4999188;28;20054;-73
2023/02/09 08:49:22;;;;;;;23.02;10.13;;;;;;;-3.28;100.00;103371.16;4997118;28;20049;-73
2023/02/09 08:51:48;;;;;;;24.75;11.32;;;;;;;-2.82;99.58;103381.03;5002061;28;20069;-79
2023/02/09 08:54:14;;;;;;;28.73;15.15;;;;;;;-2.59;100.00;103375.66;4997890;28;20045;-73
2023/02/09 08:56:41;;;;;;;19.17;9.75;;;;;;;-3.50;98.41;103142.19;4993055;28;20060;-73
2023/02/09 08:59:07;;;;;;;28.23;11.20;;;;;;;-3.67;97.72;103279.94;4995714;28;20042;-79
2023/02/09 09:01:32;;;;;;;22.23;9.85;;;;;;;-4.22;99.53;103230.56;4994963;28;20810;-73
2023/02/09 09:03:58;;;;;;;23.58;9.30;;;;;;;-3.31;100.00;103356.34;4996460;28;20057;-77
2023/02/09 09:06:23;;;;;;;20.75;9.68;;;;;;;-3.53;99.76;103250.56;4991089;28;20049;-76
2023/02/09 09:08:50;;;;;;;22.10;10.95;;;;;;;-3.34;100.00;103335.50;4979761;28;20085;-74
2023/02/09 09:11:16;;;;;;;19.55;9.32;;;;;;;-3.16;99.14;103361.25;4996673;28;20124;-76
2023/02/09 09:13:42;;;;;;;20.17;11.23;;;;;;;-3.10;98.41;103349.97;4996201;28;20133;-73
2023/02/09 09:16:14;;;;;;;18.02;8.73;;;;;;;-3.78;97.00;103225.72;5001456;28;20205;-74
2023/02/09 09:18:39;;;;;;;21.95;8.40;;;;;;;-3.76;95.43;103250.78;4998954;28;20038;-74
2023/02/09 09:21:05;;;;;;;18.23;10.57;;;;;;;-3.07;93.75;103355.41;4991081;28;20033;-74
2023/02/09 09:23:30;;;;;;;30.70;11.05;;;;;;;-3.45;92.00;103223.13;5006814;28;20068;-75
2023/02/09 09:26:05;;;;;;;17.45;7.65;;;;;;;-2.82;90.82;103339.94;5000759;28;20127;-75
2023/02/09 09:28:30;;;;;;;18.70;7.78;;;;;;;-2.68;90.54;103351.59;4994787;28;20042;-74
2023/02/09 09:31:00;;;;;;;15.20;6.38;;;;;;;-2.98;87.91;103352.88;4998913;28;20052;-73
2023/02/09 09:33:26;;;;;;;15.77;10.10;;;;;;;-3.58;87.39;103217.47;4996580;28;20124;-75
2023/02/09 09:35:52;;;;;;;13.43;6.38;;;;;;;-3.09;87.47;103323.53;5002695;28;20030;-74
2023/02/09 09:38:17;;;;;;;27.50;10.55;;;;;;;-3.01;88.26;103311.47;5002074;28;20049;-75
2023/02/09 09:40:44;;;;;;;15.35;6.95;;;;;;;-2.71;88.02;103352.22;4997090;28;20104;-76
2023/02/09 09:43:37;;;;;;;15.05;8.13;;;;;;;-2.82;86.18;103292.00;4996650;28;20068;-75
2023/02/09 09:46:05;;;;;;;24.10;8.55;;;;;;;-2.78;88.44;103318.94;4999597;28;20057;-74
2023/02/09 09:48:45;;;;;;;15.30;8.00;;;;;;;-3.20;91.31;103178.63;4995067;28;20057;-75
2023/02/09 09:51:17;;;;;;;18.60;8.18;;;;;;;-2.91;88.88;103210.56;4999293;28;20030;-76
2023/02/09 09:53:44;;;;;;;14.27;7.93;;;;;;;-3.24;87.55;103199.63;4997995;28;20184;-75
2023/02/09 09:56:12;;;;;;;16.50;9.45;;;;;;;-3.27;87.27;103191.63;4996513;28;20546;-73
2023/02/09 09:58:43;;;;;;;19.30;8.18;;;;;;;-2.42;84.50;103325.94;4998546;28;20894;-74
2023/02/09 10:01:14;;;;;;;12.35;6.90;;;;;;;-2.65;88.32;103331.34;4999344;28;20100;-73
2023/02/09 10:03:40;;;;;;;10.85;5.00;;;;;;;-3.68;89.41;103152.41;4997231;28;20064;-75
2023/02/09 10:06:24;;;;;;;14.80;6.70;;;;;;;-2.68;90.85;103297.63;4989879;28;20611;-75
2023/02/09 10:09:03;;;;;;;15.52;8.75;;;;;;;-2.53;89.86;103309.44;4999682;28;20044;-80
2023/02/09 10:11:52;;;;;;;27.40;9.10;;;;;;;-3.01;90.43;103173.69;4995931;28;20145;-76
2023/02/09 10:14:18;;;;;;;17.38;6.75;;;;;;;-3.22;90.01;103177.56;4997279;28;20054;-78
2023/02/09 10:16:43;;;;;;;23.20;8.52;;;;;;;-3.09;88.77;103158.25;4988934;28;20493;-81
2023/02/09 10:19:21;;;;;;;14.77;6.78;;;;;;;-2.93;87.08;103184.69;4990696;28;20058;-75
2023/02/09 10:21:47;;;;;;;15.07;8.20;;;;;;;-2.23;85.39;103303.84;5000902;28;20058;-72
2023/02/09 10:24:19;;;;;;;15.35;8.23;;;;;;;-2.49;86.32;103262.72;5003012;28;20038;-73
2023/02/09 10:27:02;;;;;;;12.82;6.40;;;;;;;-2.44;86.50;103250.31;4995040;28;20030;-78
2023/02/09 10:29:28;;;;;;;12.73;7.53;;;;;;;-3.09;84.31;103140.28;5001849;28;20069;-74
2023/02/09 10:32:15;;;;;;;22.30;7.20;;;;;;;-2.60;80.63;103179.44;4996406;28;20041;-74
2023/02/09 10:34:48;;;;;;;20.40;8.98;;;;;;;-2.04;82.47;103274.78;4991951;28;20077;-74
2023/02/09 10:37:27;;;;;;;13.60;7.00;;;;;;;-1.87;83.56;103285.06;4994979;28;20384;-75
2023/02/09 10:40:04;;;;;;;13.82;8.45;;;;;;;-1.86;84.15;103284.28;4998110;28;20066;-73
2023/02/09 10:42:32;;;;;;;13.10;6.50;;;;;;;-2.28;79.16;103176.50;4998008;28;20054;-75
2023/02/09 10:45:11;;;;;;;13.75;7.38;;;;;;;-2.12;78.31;103160.88;4991898;28;20045;-73
2023/02/09 10:47:36;;;;;;;17.63;6.40;;;;;;;-1.88;78.78;103234.34;4997807;28;20076;-76
2023/02/09 10:50:16;;;;;;;17.83;8.07;;;;;;;-1.96;78.59;103195.03;4989841;28;20054;-76
2023/02/09 10:52:57;;;;;;;13.93;7.30;;;;;;;-1.53;75.37;103280.56;4992143;28;20050;-77
2023/02/09 10:55:40;;;;;;;14.32;6.32;;;;;;;-2.02;73.22;103162.66;4995320;28;20119;-75
2023/02/09 10:58:08;;;;;;;16.70;6.78;;;;;;;-1.66;70.84;103129.19;4989480;28;20061;-75
2023/02/09 11:00:40;;;;;;;19.35;8.20;;;;;;;-1.70;70.86;103124.53;4992204;28;20046;-75
2023/02/09 11:03:15;;;;;;;30.05;8.65;;;;;;;-0.54;68.48;103138.47;4990014;28;20145;-76
2023/02/09 11:05:43;;;;;;;12.98;7.07;;;;;;;-1.09;67.80;103179.13;4987780;28;20037;-76
2023/02/09 11:08:27;;;;;;;14.68;7.28;;;;;;;-0.23;67.41;103246.22;4995005;28;20062;-76
2023/02/09 11:11:07;;;;;;;12.13;6.40;;;;;;;-0.06;65.93;103241.66;4987309;28;20092;-77
2023/02/09 11:13:34;;;;;;;18.20;8.98;;;;;;;0.09;64.35;103168.13;4992180;28;20129;-76
2023/02/09 11:16:25;;;;;;;21.42;9.18;;;;;;;0.25;63.01;103244.34;4990848;28;20054;-76
2023/02/09 11:18:58;;;;;;;15.70;9.63;;;;;;;-0.45;65.12;103206.34;4992254;28;20141;-77
2023/02/09 11:21:31;;;;;;;17.00;9.18;;;;;;;-0.95;66.36;103104.75;4995363;28;20490;-78